createdAt,value
2024-04-18T00:00:36.522Z,33.58
2024-04-18T00:01:45.250Z,28.58
2024-04-18T00:02:50.896Z,29.02
2024-04-18T00:03:56.736Z,27.65
2024-04-18T00:05:02.483Z,25.25
2024-04-18T00:06:14.272Z,31.48
2024-04-18T00:07:19.981Z,30.67
2024-04-18T00:08:25.635Z,27.70
2024-04-18T00:09:31.282Z,31.95
2024-04-18T00:10:39.908Z,30.95
2024-04-18T00:11:47.541Z,27.52
2024-04-18T00:12:53.825Z,29.88
2024-04-18T00:14:02.472Z,26.77
2024-04-18T00:15:10.795Z,33.38
2024-04-18T00:16:16.430Z,28.40
2024-04-18T00:17:22.133Z,31.55
2024-04-18T00:18:30.820Z,29.33
2024-04-18T00:19:36.576Z,35.15
2024-04-18T00:20:42.214Z,36.70
2024-04-18T00:21:53.763Z,30.23
2024-04-18T00:22:59.333Z,30.95
2024-04-18T00:24:04.912Z,31.73
2024-04-18T00:25:13.798Z,29.35
2024-04-18T00:26:19.406Z,27.38
2024-04-18T00:27:25.015Z,25.27
2024-04-18T00:28:33.549Z,27.58
2024-04-18T00:29:40.626Z,26.93
2024-04-18T00:30:46.710Z,24.50
2024-04-18T00:31:52.487Z,27.10
2024-04-18T00:33:01.070Z,29.95
2024-04-18T00:34:07.742Z,29.42
2024-04-18T00:35:13.336Z,30.60
2024-04-18T00:36:19.074Z,26.73
2024-04-18T00:37:30.613Z,27.30
2024-04-18T00:38:36.240Z,29.10
2024-04-18T00:39:41.916Z,34.15
2024-04-18T00:40:51.145Z,29.13
2024-04-18T00:41:56.774Z,25.48
2024-04-18T00:43:04.023Z,28.83
2024-04-18T00:44:12.563Z,28.00
2024-04-18T00:45:18.269Z,31.92
2024-04-18T00:46:27.455Z,29.52
2024-04-18T00:47:33.197Z,30.92
2024-04-18T00:48:42.081Z,29.05
2024-04-18T00:49:47.785Z,32.60
2024-04-18T00:50:53.895Z,30.35
2024-04-18T00:52:00.200Z,27.30
2024-04-18T00:53:11.999Z,25.17
2024-04-18T00:54:17.865Z,30.08
2024-04-18T00:55:23.690Z,29.50
2024-04-18T00:56:32.411Z,25.48
2024-04-18T00:57:38.816Z,26.42
2024-04-18T00:58:45.317Z,27.08
2024-04-18T00:59:54.735Z,26.38
2024-04-18T01:01:00.626Z,26.25
2024-04-18T01:02:06.410Z,25.30
2024-04-18T01:03:12.038Z,25.67
2024-04-18T01:04:21.073Z,26.33
2024-04-18T01:05:26.709Z,28.25
2024-04-18T01:06:32.630Z,24.33
2024-04-18T01:07:38.392Z,27.70
2024-04-18T01:08:50.022Z,30.63
2024-04-18T01:09:55.660Z,29.40
2024-04-18T01:11:01.254Z,25.42
2024-04-18T01:12:10.313Z,27.30
2024-04-18T01:13:16.052Z,28.17
2024-04-18T01:14:21.653Z,23.97
2024-04-18T01:15:27.343Z,30.05
2024-04-18T01:16:35.923Z,25.35
2024-04-18T01:17:41.607Z,22.95
2024-04-18T01:18:47.395Z,25.33
2024-04-18T01:19:56.198Z,29.88
2024-04-18T01:21:01.953Z,25.50
2024-04-18T01:22:07.879Z,28.88
2024-04-18T01:23:13.524Z,27.55
2024-04-18T01:24:25.641Z,25.95
2024-04-18T01:25:31.244Z,24.70
2024-04-18T01:26:39.861Z,26.48
2024-04-18T01:27:48.389Z,28.30
2024-04-18T01:28:54.103Z,24.35
2024-04-18T01:30:00.865Z,28.75
2024-04-18T01:31:06.379Z,26.33
2024-04-18T01:32:14.924Z,27.65
2024-04-18T01:33:22.584Z,25.02
2024-04-18T01:34:29.886Z,26.02
2024-04-18T01:35:38.437Z,27.98
2024-04-18T01:36:44.012Z,25.17
2024-04-18T01:37:50.057Z,27.38
2024-04-18T01:38:58.582Z,24.92
2024-04-18T01:40:04.183Z,25.63
2024-04-18T01:41:09.716Z,24.52
2024-04-18T01:42:18.174Z,26.50
2024-04-18T01:43:26.627Z,25.45
2024-04-18T01:44:32.061Z,25.50
2024-04-18T01:45:37.688Z,32.83
2024-04-18T01:46:46.163Z,29.88
2024-04-18T01:47:51.709Z,26.53
2024-04-18T01:48:57.178Z,22.48
2024-04-18T01:50:02.560Z,25.33
2024-04-18T01:51:11.203Z,24.58
2024-04-18T01:52:16.690Z,26.58
2024-04-18T01:53:22.168Z,24.10
2024-04-18T01:54:30.618Z,24.48
2024-04-18T01:55:36.081Z,25.92
2024-04-18T01:56:41.498Z,25.83
2024-04-18T01:57:52.920Z,25.38
2024-04-18T01:58:58.479Z,20.17
2024-04-18T02:00:04.056Z,24.80
2024-04-18T02:01:09.653Z,23.33
2024-04-18T02:02:18.092Z,22.65
2024-04-18T02:03:23.736Z,26.55
2024-04-18T02:04:29.355Z,23.10
2024-04-18T02:05:36.279Z,22.30
2024-04-18T02:06:44.844Z,24.58
2024-04-18T02:07:50.513Z,20.33
2024-04-18T02:08:56.039Z,23.02
2024-04-18T02:10:04.514Z,20.30
2024-04-18T02:11:10.094Z,21.87
2024-04-18T02:12:15.673Z,21.67
2024-04-18T02:13:27.193Z,24.73
2024-04-18T02:14:32.703Z,20.20
2024-04-18T02:15:38.542Z,23.45
2024-04-18T02:16:44.072Z,22.42
2024-04-18T02:17:52.734Z,19.70
2024-04-18T02:18:58.415Z,19.50
2024-04-18T02:20:03.981Z,19.90
2024-04-18T02:21:12.568Z,25.80
2024-04-18T02:22:18.160Z,23.43
2024-04-18T02:23:25.010Z,22.95
2024-04-18T02:24:30.619Z,21.70
2024-04-18T02:25:40.475Z,21.70
2024-04-18T02:26:46.526Z,20.02
2024-04-18T02:27:51.993Z,22.13
2024-04-18T02:29:03.579Z,21.13
2024-04-18T02:30:10.205Z,20.67
2024-04-18T02:31:15.988Z,25.45
2024-04-18T02:32:24.652Z,23.23
2024-04-18T02:33:30.389Z,19.03
2024-04-18T02:34:35.898Z,21.83
2024-04-18T02:35:41.429Z,17.73
2024-04-18T02:36:49.987Z,20.27
2024-04-18T02:37:55.534Z,19.83
2024-04-18T02:39:01.074Z,20.05
2024-04-18T02:40:09.712Z,21.35
2024-04-18T02:41:15.314Z,21.30
2024-04-18T02:42:20.862Z,20.10
2024-04-18T02:43:26.415Z,25.00
2024-04-18T02:44:37.862Z,17.90
2024-04-18T02:45:44.077Z,19.83
2024-04-18T02:46:49.754Z,20.80
2024-04-18T02:47:55.386Z,16.63
2024-04-18T02:49:04.088Z,19.13
2024-04-18T02:50:10.486Z,21.92
2024-04-18T02:51:16.075Z,20.17
2024-04-18T02:52:25.935Z,17.30
2024-04-18T02:53:31.480Z,21.60
2024-04-18T02:54:37.020Z,21.57
2024-04-18T02:55:42.539Z,21.87
2024-04-18T02:56:51.070Z,19.92
2024-04-18T02:57:56.889Z,17.83
2024-04-18T02:59:02.439Z,18.40
2024-04-18T03:00:14.903Z,19.42
2024-04-18T03:01:20.529Z,21.17
2024-04-18T03:02:26.456Z,20.35
2024-04-18T03:03:32.115Z,19.20
2024-04-18T03:04:40.513Z,19.10
2024-04-18T03:05:46.054Z,20.93
2024-04-18T03:06:51.992Z,19.23
2024-04-18T03:07:58.963Z,18.15
2024-04-18T03:09:07.462Z,24.73
2024-04-18T03:10:12.971Z,19.67
2024-04-18T03:11:18.594Z,23.33
2024-04-18T03:12:27.121Z,18.00
2024-04-18T03:13:32.621Z,19.08
2024-04-18T03:14:38.156Z,18.85
2024-04-18T03:15:53.642Z,20.10
2024-04-18T03:16:59.146Z,21.27
2024-04-18T03:18:04.774Z,20.13
2024-04-18T03:19:17.975Z,17.92
2024-04-18T03:20:23.691Z,21.35
2024-04-18T03:21:29.173Z,22.95
2024-04-18T03:22:38.012Z,19.67
2024-04-18T03:23:43.662Z,20.23
2024-04-18T03:24:49.242Z,18.25
2024-04-18T03:25:54.893Z,19.17
2024-04-18T03:27:03.308Z,20.27
2024-04-18T03:28:09.492Z,20.13
2024-04-18T03:29:15.765Z,24.03
2024-04-18T03:30:21.317Z,18.95
2024-04-18T03:31:33.241Z,23.40
2024-04-18T03:32:38.923Z,19.63
2024-04-18T03:33:44.412Z,17.20
2024-04-18T03:34:55.308Z,22.48
2024-04-18T03:36:00.831Z,18.38
2024-04-18T03:37:09.432Z,19.13
2024-04-18T03:38:14.968Z,21.00
2024-04-18T03:39:23.572Z,18.07
2024-04-18T03:40:29.078Z,19.07
2024-04-18T03:41:34.647Z,18.60
2024-04-18T03:42:43.142Z,19.95
2024-04-18T03:43:48.846Z,17.75
2024-04-18T03:44:54.499Z,19.38
2024-04-18T03:46:04.918Z,20.48
2024-04-18T03:47:13.382Z,18.90
2024-04-18T03:48:22.069Z,19.33
2024-04-18T03:49:27.545Z,18.58
2024-04-18T03:50:33.043Z,16.33
2024-04-18T03:51:41.692Z,22.20
2024-04-18T03:52:47.442Z,20.00
2024-04-18T03:53:54.008Z,19.17
2024-04-18T03:55:02.302Z,16.33
2024-04-18T03:56:11.630Z,18.45
2024-04-18T03:57:17.159Z,18.70
2024-04-18T03:58:22.626Z,17.10
2024-04-18T03:59:28.132Z,22.20
2024-04-18T04:00:37.680Z,30.55
2024-04-18T04:01:43.979Z,17.43
2024-04-18T04:02:52.421Z,19.80
2024-04-18T04:04:01.022Z,17.73
2024-04-18T04:05:06.863Z,17.67
2024-04-18T04:06:12.406Z,17.40
2024-04-18T04:07:17.989Z,16.08
2024-04-18T04:08:26.365Z,18.08
2024-04-18T04:09:31.896Z,16.48
2024-04-18T04:10:37.503Z,20.25
2024-04-18T04:11:45.925Z,17.60
2024-04-18T04:12:51.600Z,20.03
2024-04-18T04:14:00.294Z,19.13
2024-04-18T04:15:06.426Z,18.15
2024-04-18T04:16:15.042Z,22.90
2024-04-18T04:17:20.586Z,22.67
2024-04-18T04:18:29.106Z,20.08
2024-04-18T04:19:37.656Z,19.02
2024-04-18T04:20:43.645Z,20.65
2024-04-18T04:21:49.262Z,22.17
2024-04-18T04:22:57.767Z,20.38
2024-04-18T04:24:03.216Z,21.13
2024-04-18T04:25:08.944Z,20.83
2024-04-18T04:26:17.387Z,19.45
2024-04-18T04:27:22.904Z,21.15
2024-04-18T04:28:28.376Z,20.63
2024-04-18T04:29:36.713Z,17.92
2024-04-18T04:30:42.164Z,19.48
2024-04-18T04:31:47.686Z,17.63
2024-04-18T04:32:56.235Z,20.40
2024-04-18T04:34:04.708Z,18.85
2024-04-18T04:35:10.273Z,21.37
2024-04-18T04:36:15.730Z,20.53
2024-04-18T04:37:24.507Z,21.35
2024-04-18T04:38:30.106Z,22.83
2024-04-18T04:39:35.543Z,22.33
2024-04-18T04:40:43.964Z,18.88
2024-04-18T04:41:49.647Z,19.10
2024-04-18T04:42:57.256Z,20.80
2024-04-18T04:44:07.259Z,18.80
2024-04-18T04:45:12.669Z,19.70
2024-04-18T04:46:18.156Z,18.60
2024-04-18T04:47:23.751Z,19.53
2024-04-18T04:48:33.986Z,16.80
2024-04-18T04:49:43.864Z,22.27
2024-04-18T04:50:59.235Z,20.10
2024-04-18T04:52:07.743Z,22.88
2024-04-18T04:53:13.218Z,21.02
2024-04-18T04:54:18.890Z,18.80
2024-04-18T04:55:27.494Z,23.48
2024-04-18T04:56:32.942Z,18.08
2024-04-18T04:57:38.459Z,21.67
2024-04-18T04:58:46.956Z,22.30
2024-04-18T04:59:52.441Z,24.38
2024-04-18T05:00:59.514Z,18.73
2024-04-18T05:02:05.213Z,22.27
2024-04-18T05:03:13.827Z,21.83
2024-04-18T05:04:19.517Z,25.75
2024-04-18T05:05:28.194Z,17.95
2024-04-18T05:06:36.786Z,20.77
2024-04-18T05:07:42.338Z,20.90
2024-04-18T05:08:49.474Z,21.60
2024-04-18T05:09:55.086Z,17.10
2024-04-18T05:11:03.846Z,18.38
2024-04-18T05:12:09.757Z,18.63
2024-04-18T05:13:16.034Z,19.88
2024-04-18T05:14:24.846Z,17.80
2024-04-18T05:15:33.506Z,18.70
2024-04-18T05:16:39.156Z,21.15
2024-04-18T05:17:44.844Z,18.17
2024-04-18T05:18:54.188Z,22.98
2024-04-18T05:20:00.071Z,17.77
2024-04-18T05:21:08.843Z,19.23
2024-04-18T05:22:17.330Z,17.67
2024-04-18T05:23:22.930Z,20.48
2024-04-18T05:24:28.579Z,19.25
2024-04-18T05:25:37.152Z,17.25
2024-04-18T05:26:42.727Z,17.67
2024-04-18T05:27:57.932Z,20.40
2024-04-18T05:29:21.677Z,18.45
2024-04-18T05:30:45.288Z,29.65
2024-04-18T05:31:54.279Z,20.63
2024-04-18T05:32:59.958Z,19.13
2024-04-18T05:34:08.659Z,17.27
2024-04-18T05:35:14.349Z,18.45
2024-04-18T05:36:25.961Z,21.63
2024-04-18T05:37:31.482Z,18.92
2024-04-18T05:38:36.996Z,24.63
2024-04-18T05:39:45.628Z,22.55
2024-04-18T05:40:51.648Z,20.38
2024-04-18T05:42:00.207Z,23.42
2024-04-18T05:43:05.764Z,17.83
2024-04-18T05:44:14.246Z,20.13
2024-04-18T05:45:19.932Z,28.60
2024-04-18T05:46:25.481Z,19.13
2024-04-18T05:47:34.322Z,18.75
2024-04-18T05:48:39.988Z,20.42
2024-04-18T05:49:48.756Z,23.95
2024-04-18T05:50:54.295Z,16.48
2024-04-18T05:52:05.864Z,18.00
2024-04-18T05:53:11.448Z,20.50
2024-04-18T05:54:20.260Z,17.20
2024-04-18T05:55:26.486Z,20.70
2024-04-18T05:56:35.162Z,24.70
2024-04-18T05:57:40.837Z,20.02
2024-04-18T05:58:51.375Z,17.50
2024-04-18T05:59:56.899Z,20.65
2024-04-18T06:01:07.103Z,17.85
2024-04-18T06:02:13.716Z,17.30
2024-04-18T06:03:19.400Z,20.98
2024-04-18T06:04:28.084Z,17.75
2024-04-18T06:05:33.622Z,16.97
2024-04-18T06:06:42.275Z,21.43
2024-04-18T06:07:50.808Z,18.70
2024-04-18T06:08:59.397Z,17.55
2024-04-18T06:10:05.141Z,16.52
2024-04-18T06:11:13.639Z,18.48
2024-04-18T06:12:20.083Z,18.60
2024-04-18T06:13:29.927Z,34.33
2024-04-18T06:14:35.474Z,26.15
2024-04-18T06:15:45.352Z,17.58
2024-04-18T06:16:54.854Z,16.40
2024-04-18T06:18:00.511Z,21.17
2024-04-18T06:19:09.197Z,19.45
2024-04-18T06:20:14.746Z,17.67
2024-04-18T06:21:23.278Z,16.30
2024-04-18T06:22:28.820Z,19.08
2024-04-18T06:23:40.264Z,17.40
2024-04-18T06:24:48.251Z,20.63
2024-04-18T06:25:59.334Z,15.52
2024-04-18T06:27:04.881Z,16.85
2024-04-18T06:28:15.581Z,17.77
2024-04-18T06:29:21.138Z,16.53
2024-04-18T06:30:26.770Z,22.63
2024-04-18T06:31:35.314Z,17.55
2024-04-18T06:32:41.104Z,19.52
2024-04-18T06:33:49.899Z,20.55
2024-04-18T06:34:55.716Z,16.50
2024-04-18T06:36:04.814Z,18.38
2024-04-18T06:37:11.735Z,18.75
2024-04-18T06:38:20.181Z,17.25
2024-04-18T06:39:28.862Z,16.90
2024-04-18T06:40:34.486Z,20.73
2024-04-18T06:41:43.093Z,19.83
2024-04-18T06:42:48.796Z,18.83
2024-04-18T06:43:57.438Z,18.67
2024-04-18T06:45:02.917Z,18.40
2024-04-18T06:46:11.655Z,24.25
2024-04-18T06:47:17.384Z,17.60
2024-04-18T06:48:25.979Z,17.77
2024-04-18T06:49:31.612Z,17.55
2024-04-18T06:50:40.216Z,17.43
2024-04-18T06:51:47.728Z,16.43
2024-04-18T06:52:56.363Z,19.63
2024-04-18T06:54:02.593Z,16.17
2024-04-18T06:55:14.265Z,17.60
2024-04-18T06:56:22.861Z,17.08
2024-04-18T06:57:31.695Z,15.77
2024-04-18T06:58:37.278Z,16.52
2024-04-18T06:59:45.737Z,15.27
2024-04-18T07:00:52.135Z,16.70
2024-04-18T07:02:00.708Z,16.43
2024-04-18T07:03:06.471Z,20.53
2024-04-18T07:04:15.257Z,15.00
2024-04-18T07:05:20.778Z,17.88
2024-04-18T07:06:29.294Z,16.65
2024-04-18T07:07:34.738Z,15.07
2024-04-18T07:08:43.151Z,17.65
2024-04-18T07:09:49.927Z,18.35
2024-04-18T07:11:01.624Z,18.15
2024-04-18T07:12:07.588Z,15.40
2024-04-18T07:13:13.166Z,17.30
2024-04-18T07:14:21.610Z,14.87
2024-04-18T07:15:27.184Z,16.83
2024-04-18T07:16:35.581Z,19.95
2024-04-18T07:17:41.103Z,16.98
2024-04-18T07:18:49.767Z,17.30
2024-04-18T07:19:55.725Z,18.58
2024-04-18T07:21:04.235Z,18.52
2024-04-18T07:22:10.031Z,16.85
2024-04-18T07:23:18.442Z,17.50
2024-04-18T07:24:25.361Z,17.77
2024-04-18T07:25:34.027Z,17.40
2024-04-18T07:26:42.542Z,16.13
2024-04-18T07:27:51.134Z,20.05
2024-04-18T07:28:56.568Z,16.00
2024-04-18T07:30:05.035Z,17.13
2024-04-18T07:31:10.520Z,17.95
2024-04-18T07:32:18.970Z,16.88
2024-04-18T07:33:24.610Z,18.60
2024-04-18T07:34:33.188Z,16.92
2024-04-18T07:35:38.652Z,18.27
2024-04-18T07:36:47.226Z,15.53
2024-04-18T07:37:54.382Z,16.17
2024-04-18T07:39:02.820Z,14.85
2024-04-18T07:40:15.224Z,15.85
2024-04-18T07:41:23.659Z,15.27
2024-04-18T07:42:32.116Z,16.63
2024-04-18T07:43:40.539Z,14.40
2024-04-18T07:44:46.135Z,15.82
2024-04-18T07:45:54.875Z,18.23
2024-04-18T07:47:00.477Z,17.35
2024-04-18T07:48:09.215Z,15.60
2024-04-18T07:49:14.787Z,14.07
2024-04-18T07:50:23.254Z,20.83
2024-04-18T07:51:28.903Z,22.35
2024-04-18T07:52:34.386Z,15.07
2024-04-18T07:53:42.999Z,16.35
2024-04-18T07:54:49.058Z,18.08
2024-04-18T07:55:57.638Z,17.20
2024-04-18T07:57:04.427Z,15.93
2024-04-18T07:58:16.977Z,22.65
2024-04-18T07:59:23.885Z,14.37
2024-04-18T08:00:34.177Z,16.65
2024-04-18T08:01:42.426Z,16.50
2024-04-18T08:02:54.178Z,16.65
2024-04-18T08:04:17.388Z,16.80
2024-04-18T08:05:31.313Z,21.63
2024-04-18T08:06:42.239Z,18.77
2024-04-18T08:07:54.611Z,14.57
2024-04-18T08:09:05.997Z,16.00
2024-04-18T08:10:18.732Z,18.92
2024-04-18T08:11:53.522Z,14.37
2024-04-18T08:12:57.948Z,14.60
2024-04-18T08:14:11.902Z,15.32
2024-04-18T08:15:26.818Z,15.60
2024-04-18T08:16:49.261Z,16.40
2024-04-18T08:17:58.070Z,17.38
2024-04-18T08:19:03.687Z,14.93
2024-04-18T08:20:13.422Z,17.38
2024-04-18T08:21:19.134Z,15.10
2024-04-18T08:22:28.006Z,17.67
2024-04-18T08:23:33.553Z,18.70
2024-04-18T08:24:44.713Z,16.08
2024-04-18T08:25:50.242Z,21.17
2024-04-18T08:26:58.741Z,17.17
2024-04-18T08:28:04.258Z,19.65
2024-04-18T08:29:16.228Z,15.18
2024-04-18T08:30:22.437Z,20.30
2024-04-18T08:31:31.020Z,18.40
2024-04-18T08:32:36.577Z,19.75
2024-04-18T08:33:53.937Z,19.02
2024-04-18T08:35:07.957Z,15.20
2024-04-18T08:36:13.714Z,15.95
2024-04-18T08:37:22.858Z,20.63
2024-04-18T08:38:28.422Z,17.25
2024-04-18T08:39:36.886Z,19.08
2024-04-18T08:40:44.533Z,17.20
2024-04-18T08:41:53.041Z,16.00
2024-04-18T08:42:58.580Z,15.88
2024-04-18T08:44:08.069Z,15.02
2024-04-18T08:45:17.262Z,16.90
2024-04-18T08:46:26.206Z,17.13
2024-04-18T08:47:34.389Z,16.80
2024-04-18T08:48:45.133Z,18.90
2024-04-18T08:49:51.161Z,18.33
2024-04-18T08:51:00.054Z,19.65
2024-04-18T08:52:06.398Z,18.25
2024-04-18T08:53:17.254Z,23.02
2024-04-18T08:54:23.420Z,21.40
2024-04-18T08:55:32.322Z,17.58
2024-04-18T08:56:38.498Z,18.80
2024-04-18T08:57:53.402Z,19.23
2024-04-18T08:58:59.021Z,21.45
2024-04-18T09:00:06.499Z,20.17
2024-04-18T09:01:18.776Z,31.15
2024-04-18T09:02:24.862Z,20.70
2024-04-18T09:03:31.665Z,19.88
2024-04-18T09:04:41.049Z,17.40
2024-04-18T09:05:46.826Z,17.00
2024-04-18T09:06:55.548Z,31.80
2024-04-18T09:08:01.235Z,16.83
2024-04-18T09:09:16.675Z,23.10
2024-04-18T09:10:25.250Z,22.23
2024-04-18T09:11:34.106Z,19.35
2024-04-18T09:12:40.995Z,19.63
2024-04-18T09:13:50.020Z,20.50
2024-04-18T09:14:55.636Z,22.52
2024-04-18T09:16:04.221Z,18.00
2024-04-18T09:17:18.711Z,19.85
2024-04-18T09:18:29.632Z,23.35
2024-04-18T09:19:35.244Z,25.07
2024-04-18T09:20:44.621Z,26.23
2024-04-18T09:21:50.191Z,22.13
2024-04-18T09:22:59.069Z,20.77
2024-04-18T09:24:04.577Z,26.50
2024-04-18T09:25:13.464Z,20.38
2024-04-18T09:26:19.425Z,21.95
2024-04-18T09:27:27.958Z,23.98
2024-04-18T09:28:33.608Z,21.63
2024-04-18T09:29:42.085Z,20.27
2024-04-18T09:30:48.173Z,20.80
2024-04-18T09:31:57.291Z,18.10
2024-04-18T09:33:07.660Z,19.45
2024-04-18T09:34:19.618Z,17.00
2024-04-18T09:35:25.916Z,21.27
2024-04-18T09:36:34.526Z,17.90
2024-04-18T09:37:46.962Z,21.40
2024-04-18T09:39:02.842Z,17.95
2024-04-18T09:40:12.111Z,19.42
2024-04-18T09:41:22.355Z,23.20
2024-04-18T09:42:43.355Z,18.30
2024-04-18T09:43:58.779Z,18.07
2024-04-18T09:45:07.142Z,24.15
2024-04-18T09:46:16.797Z,24.17
2024-04-18T09:47:22.730Z,18.85
2024-04-18T09:48:32.635Z,19.15
2024-04-18T09:49:41.644Z,23.00
2024-04-18T09:50:47.435Z,18.45
2024-04-18T09:51:56.531Z,18.15
2024-04-18T09:53:02.598Z,23.13
2024-04-18T09:54:12.222Z,19.20
2024-04-18T09:55:21.881Z,15.63
2024-04-18T09:56:31.571Z,21.02
2024-04-18T09:57:37.919Z,16.70
2024-04-18T09:58:47.827Z,18.00
2024-04-18T09:59:54.709Z,17.25
2024-04-18T10:01:00.517Z,22.58
2024-04-18T10:02:10.275Z,19.65
2024-04-18T10:03:18.293Z,19.25
2024-04-18T10:04:29.982Z,19.95
2024-04-18T10:05:35.728Z,19.17
2024-04-18T10:06:48.711Z,17.93
2024-04-18T10:07:56.237Z,16.58
2024-04-18T10:09:08.260Z,18.58
2024-04-18T10:10:14.526Z,17.98
2024-04-18T10:11:24.376Z,17.45
2024-04-18T10:12:34.838Z,16.38
2024-04-18T10:13:43.604Z,19.55
2024-04-18T10:14:49.394Z,17.80
2024-04-18T10:16:08.441Z,21.25
2024-04-18T10:17:25.931Z,17.57
2024-04-18T10:18:41.584Z,16.57
2024-04-18T10:19:50.265Z,20.27
2024-04-18T10:20:57.511Z,16.23
2024-04-18T10:22:17.695Z,22.95
2024-04-18T10:23:31.199Z,17.05
2024-04-18T10:24:40.190Z,16.00
2024-04-18T10:25:46.932Z,14.20
2024-04-18T10:27:04.931Z,15.43
2024-04-18T10:28:20.271Z,18.85
2024-04-18T10:29:29.589Z,17.87
2024-04-18T10:30:36.354Z,18.10
2024-04-18T10:31:45.201Z,16.23
2024-04-18T10:32:51.425Z,16.65
2024-04-18T10:34:00.810Z,17.30
2024-04-18T10:35:09.521Z,16.92
2024-04-18T10:36:20.390Z,15.45
2024-04-18T10:37:26.686Z,19.27
2024-04-18T10:38:36.196Z,18.23
2024-04-18T10:39:43.296Z,18.17
2024-04-18T10:41:05.780Z,22.13
2024-04-18T10:42:11.745Z,19.03
2024-04-18T10:43:20.421Z,23.83
2024-04-18T10:44:29.608Z,17.50
2024-04-18T10:45:35.495Z,17.48
2024-04-18T10:46:41.088Z,19.38
2024-04-18T10:47:51.034Z,16.92
2024-04-18T10:48:57.003Z,17.42
2024-04-18T10:50:06.102Z,18.45
2024-04-18T10:51:14.681Z,28.10
2024-04-18T10:52:23.543Z,16.03
2024-04-18T10:53:29.155Z,18.03
2024-04-18T10:54:37.613Z,18.08
2024-04-18T10:55:44.232Z,20.10
2024-04-18T10:56:52.969Z,18.30
2024-04-18T10:57:58.484Z,16.20
2024-04-18T10:59:06.902Z,17.02
2024-04-18T11:00:17.373Z,14.98
2024-04-18T11:01:26.491Z,17.80
2024-04-18T11:02:33.767Z,19.55
2024-04-18T11:03:42.628Z,17.87
2024-04-18T11:04:48.100Z,19.80
2024-04-18T11:05:53.578Z,16.60
2024-04-18T11:07:04.999Z,18.50
2024-04-18T11:08:11.262Z,16.90
2024-04-18T11:09:18.418Z,14.50
2024-04-18T11:10:27.522Z,16.77
2024-04-18T11:11:35.751Z,17.30
2024-04-18T11:12:44.348Z,23.92
2024-04-18T11:13:52.233Z,19.77
2024-04-18T11:15:01.681Z,17.17
2024-04-18T11:16:07.875Z,17.90
2024-04-18T11:17:16.352Z,14.88
2024-04-18T11:18:24.149Z,16.67
2024-04-18T11:19:29.870Z,14.98
2024-04-18T11:20:38.478Z,16.65
2024-04-18T11:21:44.899Z,20.60
2024-04-18T11:23:01.530Z,15.23
2024-04-18T11:24:14.550Z,17.13
2024-04-18T11:25:23.326Z,16.48
2024-04-18T11:26:33.088Z,16.20
2024-04-18T11:27:42.412Z,15.67
2024-04-18T11:28:51.214Z,15.70
2024-04-18T11:29:59.749Z,19.80
2024-04-18T11:31:05.282Z,19.05
2024-04-18T11:32:15.084Z,16.08
2024-04-18T11:33:24.189Z,20.67
2024-04-18T11:34:32.736Z,17.77
2024-04-18T11:35:38.280Z,17.33
2024-04-18T11:36:46.780Z,16.83
2024-04-18T11:37:55.406Z,13.93
2024-04-18T11:39:07.320Z,16.13
2024-04-18T11:40:13.710Z,13.52
2024-04-18T11:41:20.583Z,15.75
2024-04-18T11:42:29.062Z,14.20
2024-04-18T11:43:34.598Z,16.35
2024-04-18T11:44:44.480Z,15.27
2024-04-18T11:45:50.005Z,18.30
2024-04-18T11:46:58.516Z,17.65
2024-04-18T11:48:04.325Z,14.82
2024-04-18T11:49:12.932Z,17.50
2024-04-18T11:50:18.535Z,17.20
2024-04-18T11:51:27.039Z,16.13
2024-04-18T11:52:32.634Z,14.60
2024-04-18T11:53:44.058Z,14.45
2024-04-18T11:54:49.631Z,17.33
2024-04-18T11:55:59.966Z,13.90
2024-04-18T11:57:06.455Z,14.63
2024-04-18T11:58:12.462Z,15.80
2024-04-18T11:59:22.349Z,18.42
2024-04-18T12:00:28.578Z,17.90
2024-04-18T12:01:37.429Z,15.87
2024-04-18T12:02:43.541Z,14.73
2024-04-18T12:03:52.435Z,15.20
2024-04-18T12:04:58.494Z,16.40
2024-04-18T12:06:07.147Z,13.10
2024-04-18T12:07:13.305Z,19.70
2024-04-18T12:08:19.279Z,18.15
2024-04-18T12:09:30.858Z,17.40
2024-04-18T12:10:36.491Z,17.90
2024-04-18T12:11:44.966Z,14.50
2024-04-18T12:12:51.143Z,15.40
2024-04-18T12:13:59.660Z,19.73
2024-04-18T12:15:05.369Z,17.40
2024-04-18T12:16:14.109Z,18.27
2024-04-18T12:17:19.701Z,24.60
2024-04-18T12:18:28.445Z,18.60
2024-04-18T12:19:34.071Z,15.25
2024-04-18T12:20:44.902Z,14.02
2024-04-18T12:21:50.523Z,16.95
2024-04-18T12:22:59.065Z,25.73
2024-04-18T12:24:04.622Z,37.27
2024-04-18T12:25:13.238Z,31.98
2024-04-18T12:26:21.848Z,24.55
2024-04-18T12:27:27.532Z,20.00
2024-04-18T12:28:39.985Z,18.20
2024-04-18T12:29:49.585Z,15.95
2024-04-18T12:30:58.297Z,14.32
2024-04-18T12:32:04.004Z,14.65
2024-04-18T12:33:09.924Z,14.52
2024-04-18T12:34:18.474Z,15.43
2024-04-18T12:35:24.015Z,14.18
2024-04-18T12:36:32.650Z,15.10
2024-04-18T12:37:38.317Z,15.50
2024-04-18T12:38:47.599Z,16.40
2024-04-18T12:39:54.455Z,14.90
2024-04-18T12:41:06.532Z,17.30
2024-04-18T12:42:12.121Z,13.98
2024-04-18T12:43:19.334Z,13.20
2024-04-18T12:44:30.031Z,16.23
2024-04-18T12:45:37.860Z,14.77
2024-04-18T12:46:47.550Z,14.52
2024-04-18T12:47:58.815Z,14.32
2024-04-18T12:49:07.725Z,16.70
2024-04-18T12:50:13.426Z,14.30
2024-04-18T12:51:19.253Z,14.73
2024-04-18T12:52:28.829Z,12.48
2024-04-18T12:53:40.309Z,13.25
2024-04-18T12:54:49.631Z,15.27
2024-04-18T12:55:55.618Z,15.55
2024-04-18T12:57:07.463Z,14.13
2024-04-18T12:58:13.502Z,17.80
2024-04-18T12:59:19.659Z,18.75
2024-04-18T13:00:28.999Z,14.70
2024-04-18T13:01:35.045Z,14.18
2024-04-18T13:02:40.931Z,16.85
2024-04-18T13:03:51.491Z,17.60
2024-04-18T13:04:57.889Z,13.48
2024-04-18T13:06:06.638Z,14.77
2024-04-18T13:07:12.250Z,16.27
2024-04-18T13:08:21.000Z,14.13
2024-04-18T13:09:26.884Z,13.32
2024-04-18T13:10:35.667Z,15.45
2024-04-18T13:11:41.371Z,16.92
2024-04-18T13:12:53.071Z,14.45
2024-04-18T13:13:59.496Z,19.05
2024-04-18T13:15:08.272Z,15.60
2024-04-18T13:16:14.454Z,15.07
2024-04-18T13:17:23.412Z,15.52
2024-04-18T13:18:29.193Z,14.05
2024-04-18T13:19:37.979Z,13.93
2024-04-18T13:20:44.962Z,13.90
2024-04-18T13:21:56.763Z,17.20
2024-04-18T13:23:03.941Z,13.60
2024-04-18T13:24:15.670Z,13.77
2024-04-18T13:25:21.541Z,18.13
2024-04-18T13:26:30.427Z,18.77
2024-04-18T13:27:39.428Z,13.90
2024-04-18T13:28:51.904Z,13.48
2024-04-18T13:29:57.863Z,13.98
2024-04-18T13:31:06.815Z,16.57
2024-04-18T13:32:12.828Z,13.52
2024-04-18T13:33:21.750Z,17.60
2024-04-18T13:34:27.682Z,15.82
2024-04-18T13:35:33.658Z,13.80
2024-04-18T13:36:42.651Z,22.17
2024-04-18T13:37:48.799Z,17.63
2024-04-18T13:38:58.330Z,17.45
2024-04-18T13:40:05.193Z,14.20
2024-04-18T13:41:14.254Z,17.48
2024-04-18T13:42:20.082Z,15.67
2024-04-18T13:43:28.946Z,13.73
2024-04-18T13:44:37.780Z,14.30
2024-04-18T13:45:43.527Z,13.15
2024-04-18T13:46:52.638Z,14.18
2024-04-18T13:47:58.978Z,17.10
2024-04-18T13:49:08.110Z,16.70
2024-04-18T13:50:14.048Z,17.17
2024-04-18T13:51:23.288Z,17.73
2024-04-18T13:52:29.456Z,15.40
2024-04-18T13:53:38.353Z,21.07
2024-04-18T13:54:44.329Z,16.90
2024-04-18T13:55:51.857Z,17.42
2024-04-18T13:57:03.523Z,17.30
2024-04-18T13:58:09.441Z,21.15
2024-04-18T13:59:18.366Z,20.98
2024-04-18T14:00:27.498Z,18.83
2024-04-18T14:01:36.736Z,18.25
2024-04-18T14:02:43.715Z,16.50
2024-04-18T14:03:52.849Z,13.43
2024-04-18T14:04:58.904Z,16.60
2024-04-18T14:06:05.072Z,16.00
2024-04-18T14:07:14.132Z,19.08
2024-04-18T14:08:20.777Z,17.05
2024-04-18T14:09:44.043Z,15.65
2024-04-18T14:10:50.153Z,18.25
2024-04-18T14:11:59.555Z,15.23
2024-04-18T14:13:05.604Z,17.50
2024-04-18T14:14:12.092Z,15.70
2024-04-18T14:15:30.925Z,16.08
2024-04-18T14:16:58.028Z,15.37
2024-04-18T14:18:21.738Z,20.58
2024-04-18T14:19:27.693Z,18.17
2024-04-18T14:20:38.373Z,19.27
2024-04-18T14:21:44.429Z,14.63
2024-04-18T14:22:53.348Z,23.20
2024-04-18T14:23:59.370Z,16.42
2024-04-18T14:25:08.361Z,16.13
2024-04-18T14:26:15.876Z,15.15
2024-04-18T14:27:25.869Z,18.35
2024-04-18T14:28:33.508Z,20.50
2024-04-18T14:29:43.028Z,22.10
2024-04-18T14:30:49.193Z,29.63
2024-04-18T14:32:02.409Z,27.65
2024-04-18T14:33:09.338Z,28.05
2024-04-18T14:34:18.523Z,21.27
2024-04-18T14:35:24.653Z,20.88